Time;durP1;ratioP1;P1;durP2;ratioP2;P2;SDS_P1;SDS_P2;PMS_P1;PMS_P2;Temp;Humidity;BMP_temperature;BMP_pressure;BME280_temperature;BME280_humidity;BME280_pressure;Samples;Min_cycle;Max_cycle;Signal;HPM_P1;HPM_P2
2022/03/29 00:00:33;;;;;;;;;32.75;27.25;;;;;18.24;33.98;100952.19;4980252;28;45522;-74
2022/03/29 00:02:58;;;;;;;;;39.25;33.75;;;;;18.24;33.79;100953.09;4967054;28;48266;-74
2022/03/29 00:05:24;;;;;;;;;34.25;32.00;;;;;18.20;34.27;100950.66;4976757;28;45375;-74
2022/03/29 00:07:49;;;;;;;;;43.25;32.25;;;;;18.13;33.70;100944.78;4981117;28;45776;-74
2022/03/29 00:10:14;;;;;;;;;30.75;29.50;;;;;18.06;34.09;100935.28;4979411;28;45575;-74
2022/03/29 00:12:40;;;;;;;;;33.00;32.50;;;;;18.06;34.42;100938.88;4979920;28;45292;-74
2022/03/29 00:15:06;;;;;;;;;44.75;33.50;;;;;17.97;34.17;100928.59;4979155;28;45403;-74
2022/03/29 00:17:32;;;;;;;;;40.00;32.75;;;;;17.95;34.34;100917.91;4980906;28;45452;-74
2022/03/29 00:19:58;;;;;;;;;34.00;32.25;;;;;17.96;34.64;100921.50;4980785;28;45333;-74
2022/03/29 00:22:24;;;;;;;;;34.75;32.50;;;;;17.98;34.38;100924.09;4978818;28;45451;-74
2022/03/29 00:24:49;;;;;;;;;36.50;33.25;;;;;17.97;34.25;100909.69;4980109;28;45328;-74
2022/03/29 00:27:15;;;;;;;;;38.25;31.50;;;;;17.95;34.55;100908.94;4980717;28;45752;-74
2022/03/29 00:29:40;;;;;;;;;37.50;33.75;;;;;17.94;34.53;100902.66;4980479;28;45559;-74
2022/03/29 00:32:07;;;;;;;;;38.75;34.25;;;;;17.92;34.73;100903.72;4976553;28;45481;-74
2022/03/29 00:34:34;;;;;;;;;25.00;19.75;;;;;17.86;34.90;100894.13;4980645;28;45443;-74
2022/03/29 00:36:59;;;;;;;;;40.75;34.50;;;;;17.87;34.61;100887.78;4980339;28;45383;-74
2022/03/29 00:39:25;;;;;;;;;41.25;34.75;;;;;17.89;35.10;100893.09;4980274;28;45507;-74
2022/03/29 00:41:50;;;;;;;;;44.00;34.25;;;;;17.84;35.05;100884.38;4978171;28;47192;-74
2022/03/29 00:44:16;;;;;;;;;33.75;29.75;;;;;17.89;34.60;100887.69;4980411;28;45401;-74
2022/03/29 00:46:41;;;;;;;;;37.00;29.50;;;;;17.91;34.83;100888.50;4980377;28;46398;-74
2022/03/29 00:49:07;;;;;;;;;34.75;28.50;;;;;17.90;35.55;100882.19;4980550;28;45295;-74
2022/03/29 00:51:33;;;;;;;;;36.25;32.75;;;;;17.95;35.29;100881.94;4979124;28;46035;-74
2022/03/29 00:53:59;;;;;;;;;39.75;34.00;;;;;17.91;35.03;100870.44;4980183;28;45299;-74
2022/03/29 00:56:24;;;;;;;;;41.00;34.25;;;;;17.89;35.27;100866.97;4979020;28;45497;-74
2022/03/29 00:58:50;;;;;;;;;37.50;32.50;;;;;17.84;35.30;100857.38;4980319;28;45253;-74
2022/03/29 01:01:16;;;;;;;;;44.75;37.75;;;;;17.80;34.83;100851.28;4979229;28;45954;-74
2022/03/29 01:03:41;;;;;;;;;44.75;38.00;;;;;17.82;34.83;100859.31;4980282;28;45222;-75
2022/03/29 01:06:08;;;;;;;;;42.00;35.50;;;;;17.83;35.17;100848.41;4980219;28;45230;-74
2022/03/29 01:08:35;;;;;;;;;44.00;37.50;;;;;17.84;35.28;100847.47;4980037;28;45684;-74
2022/03/29 01:11:02;;;;;;;;;47.00;38.75;;;;;17.87;35.20;100841.03;4978945;28;46141;-74
2022/03/29 01:13:27;;;;;;;;;46.50;38.25;;;;;17.80;35.25;100827.00;4980062;28;45332;-74
2022/03/29 01:15:52;;;;;;;;;42.00;36.00;;;;;17.88;35.02;100840.06;4969495;28;45333;-74
2022/03/29 01:18:20;;;;;;;;;44.25;36.25;;;;;17.90;35.03;100832.72;4979948;28;45288;-74
2022/03/29 01:20:51;;;;;;;;;40.50;33.75;;;;;17.89;35.39;100833.69;4979329;28;46982;-74
2022/03/29 01:23:18;;;;;;;;;40.50;33.75;;;;;17.90;35.00;100835.44;4979876;28;45315;-74
2022/03/29 01:25:44;;;;;;;;;34.50;32.50;;;;;17.89;35.05;100833.69;4980094;28;45370;-74
2022/03/29 01:28:11;;;;;;;;;31.50;28.25;;;;;17.79;35.15;100814.44;4979773;28;45493;-74
2022/03/29 01:30:37;;;;;;;;;40.25;34.25;;;;;17.86;35.18;100823.94;4979930;28;45262;-74
2022/03/29 01:33:06;;;;;;;;;39.75;34.75;;;;;17.88;35.20;100824.72;4975749;28;45297;-74
2022/03/29 01:35:32;;;;;;;;;33.50;31.75;;;;;17.81;34.82;100812.53;4978474;28;45292;-74
2022/03/29 01:37:58;;;;;;;;;35.75;31.00;;;;;17.71;34.99;100806.84;4979736;28;45554;-74
2022/03/29 01:40:25;;;;;;;;;35.50;31.00;;;;;17.69;35.14;100811.47;4966361;28;47292;-74
2022/03/29 01:42:55;;;;;;;;;40.75;32.25;;;;;17.65;34.90;100809.91;4974464;28;45371;-74
2022/03/29 01:45:24;;;;;;;;;36.25;30.25;;;;;17.58;35.04;100808.53;4980052;28;45317;-74
2022/03/29 01:47:50;;;;;;;;;35.50;29.75;;;;;17.51;34.85;100805.34;4979564;28;45452;-74
2022/03/29 01:50:16;;;;;;;;;42.25;31.25;;;;;17.50;34.99;100810.84;4979577;28;45353;-74
2022/03/29 01:52:45;;;;;;;;;36.50;31.50;;;;;17.50;34.83;100817.09;4978702;28;45512;-74
2022/03/29 01:55:11;;;;;;;;;37.75;33.75;;;;;17.47;34.72;100806.47;4970244;28;45368;-74
2022/03/29 01:57:38;;;;;;;;;33.25;29.50;;;;;17.43;34.90;100796.00;4974515;28;45538;-74
2022/03/29 02:02:51;;;;;;;;;33.50;29.50;;;;;17.36;34.99;100792.78;4978782;28;45248;-74
2022/03/29 02:05:17;;;;;;;;;37.00;31.00;;;;;17.28;34.88;100778.88;4979749;28;45328;-75
2022/03/29 02:07:43;;;;;;;;;39.50;32.25;;;;;17.20;35.08;100761.31;4981761;28;45404;-74
2022/03/29 02:10:09;;;;;;;;;27.75;23.50;;;;;17.29;35.03;100778.78;4982470;28;45523;-74
2022/03/29 02:12:34;;;;;;;;;30.50;28.25;;;;;17.28;35.21;100768.09;4981812;28;45312;-74
2022/03/29 02:14:59;;;;;;;;;35.00;30.25;;;;;17.32;35.05;100772.34;4982317;28;45265;-75
2022/03/29 02:17:25;;;;;;;;;32.75;30.25;;;;;17.26;34.62;100757.41;4981407;28;45407;-74
2022/03/29 02:19:50;;;;;;;;;28.75;26.50;;;;;17.18;34.85;100744.34;4981469;28;46184;-75
2022/03/29 02:22:16;;;;;;;;;36.75;33.25;;;;;17.23;34.90;100746.78;4979304;28;45861;-74
2022/03/29 02:24:42;;;;;;;;;29.50;25.75;;;;;17.21;34.46;100749.56;4981349;28;45353;-74
2022/03/29 02:27:08;;;;;;;;;29.50;26.50;;;;;17.18;34.48;100746.19;4981264;28;45286;-74
2022/03/29 02:29:33;;;;;;;;;33.75;29.25;;;;;17.15;34.60;100738.28;4981411;28;46320;-75
2022/03/29 02:31:58;;;;;;;;;35.00;31.00;;;;;17.11;34.55;100732.22;4977868;28;45418;-74
2022/03/29 02:34:24;;;;;;;;;28.25;24.75;;;;;17.10;34.17;100727.75;4981506;28;45335;-74
2022/03/29 02:36:50;;;;;;;;;29.50;28.00;;;;;17.15;34.21;100728.34;4980852;28;45267;-74
2022/03/29 02:39:15;;;;;;;;;36.00;31.50;;;;;17.14;34.51;100723.03;4980951;28;46135;-75
2022/03/29 02:41:41;;;;;;;;;31.00;30.00;;;;;17.19;34.50;100723.63;4980318;28;45324;-75
2022/03/29 02:44:06;;;;;;;;;27.75;24.00;;;;;17.19;34.38;100720.94;4981367;28;45405;-74
2022/03/29 02:46:34;;;;;;;;;32.75;27.25;;;;;17.19;34.12;100718.25;4981018;28;45146;-75
2022/03/29 02:48:59;;;;;;;;;34.00;29.50;;;;;17.23;34.01;100714.41;4980908;28;46197;-74
2022/03/29 02:51:25;;;;;;;;;29.25;25.25;;;;;17.19;33.60;100710.16;4980073;28;45435;-75
2022/03/29 02:53:50;;;;;;;;;29.25;29.25;;;;;17.13;33.81;100703.31;4981009;28;45420;-75
2022/03/29 02:56:15;;;;;;;;;32.75;27.75;;;;;17.12;33.77;100698.00;4980598;28;45421;-74
2022/03/29 02:58:41;;;;;;;;;28.00;24.50;;;;;17.10;33.42;100694.53;4970557;28;45999;-74
2022/03/29 03:01:06;;;;;;;;;30.25;24.75;;;;;17.12;33.38;100698.00;4977561;28;45460;-74
2022/03/29 03:03:31;;;;;;;;;26.25;23.25;;;;;17.17;33.49;100704.88;4979688;28;45397;-75
2022/03/29 03:05:58;;;;;;;;;26.50;23.50;;;;;17.20;33.51;100712.75;4980492;28;45372;-74
2022/03/29 03:08:23;;;;;;;;;24.50;22.00;;;;;17.16;33.14;100700.44;4980552;28;46120;-75
2022/03/29 03:10:49;;;;;;;;;25.75;24.00;;;;;17.18;32.98;100701.19;4980301;28;45405;-75
2022/03/29 03:13:15;;;;;;;;;25.50;23.75;;;;;17.15;32.70;100687.03;4980071;28;45337;-75
2022/03/29 03:15:41;;;;;;;;;24.75;22.50;;;;;17.17;32.69;100696.78;4937423;28;1250494;-75
2022/03/29 03:18:08;;;;;;;;;24.25;21.25;;;;;17.18;32.49;100684.16;4980489;28;45929;-75
2022/03/29 03:20:34;;;;;;;;;31.50;27.50;;;;;17.16;32.68;100684.25;4981750;28;45466;-74
2022/03/29 03:23:00;;;;;;;;;30.50;27.75;;;;;17.11;32.85;100678.28;4980785;28;45472;-75
2022/03/29 03:25:26;;;;;;;;;27.50;24.50;;;;;17.15;32.51;100673.56;4980023;28;45382;-75
2022/03/29 03:27:51;;;;;;;;;24.00;24.00;;;;;17.13;32.75;100672.78;4981026;28;46362;-75
2022/03/29 03:30:17;;;;;;;;;22.75;21.00;;;;;17.17;32.96;100677.91;4981211;28;46387;-75
2022/03/29 03:32:43;;;;;;;;;26.50;25.00;;;;;17.22;32.79;100674.91;4979620;28;45428;-75
2022/03/29 03:35:09;;;;;;;;;27.25;24.00;;;;;17.23;33.27;100679.34;4980906;28;45600;-75
2022/03/29 03:37:35;;;;;;;;;32.50;24.50;;;;;17.19;33.41;100665.19;4981043;28;45266;-74
2022/03/29 03:40:05;;;;;;;;;27.50;24.75;;;;;17.20;33.64;100652.56;4981037;28;45237;-74
2022/03/29 03:42:31;;;;;;;;;40.75;33.25;;;;;17.16;33.36;100657.28;4980704;28;45344;-75
2022/03/29 03:44:58;;;;;;;;;27.25;25.50;;;;;17.13;33.63;100657.47;4981232;28;45430;-74
2022/03/29 03:47:24;;;;;;;;;31.25;27.50;;;;;17.20;34.01;100658.81;4980559;28;47130;-75
2022/03/29 03:49:50;;;;;;;;;29.25;27.00;;;;;17.23;34.28;100661.31;4980188;28;45639;-74
2022/03/29 03:52:16;;;;;;;;;33.00;28.75;;;;;17.26;34.52;100652.19;4979936;28;45250;-74
2022/03/29 03:54:41;;;;;;;;;29.50;25.50;;;;;17.26;34.40;100649.50;4980216;28;45385;-75
2022/03/29 03:57:06;;;;;;;;;34.25;30.00;;;;;17.20;34.35;100637.22;4980983;28;45349;-74
2022/03/29 03:59:33;;;;;;;;;34.75;30.50;;;;;17.27;34.21;100645.81;4980676;28;45301;-74
2022/03/29 04:01:59;;;;;;;;;21.50;20.00;;;;;17.23;34.25;100642.44;4980015;28;45971;-74
2022/03/29 04:04:25;;;;;;;;;31.50;25.50;;;;;17.26;34.56;100648.59;4980791;28;45481;-75
2022/03/29 04:06:51;;;;;;;;;30.50;27.75;;;;;17.21;34.32;100630.03;4980624;28;46356;-75
2022/03/29 04:09:17;;;;;;;;;30.00;23.25;;;;;17.22;34.22;100637.13;4980498;28;45700;-74
2022/03/29 04:11:43;;;;;;;;;29.50;27.75;;;;;17.18;34.16;100630.22;4977950;28;45433;-75
2022/03/29 04:14:09;;;;;;;;;37.75;29.00;;;;;17.16;34.00;100637.53;4980248;28;45228;-75
2022/03/29 04:16:34;;;;;;;;;27.25;24.00;;;;;17.13;34.11;100633.19;4979509;28;45512;-75
2022/03/29 04:19:00;;;;;;;;;28.75;25.75;;;;;17.04;33.96;100622.97;4979978;28;45222;-74
2022/03/29 04:21:25;;;;;;;;;28.50;25.75;;;;;17.00;33.65;100633.06;4980725;28;45241;-74
2022/03/29 04:23:50;;;;;;;;;30.75;26.50;;;;;16.92;33.85;100615.63;4979749;28;45692;-74
2022/03/29 04:26:16;;;;;;;;;30.00;25.75;;;;;16.95;33.91;100624.38;4976350;28;45332;-74
2022/03/29 04:28:41;;;;;;;;;24.75;21.00;;;;;17.00;33.70;100632.19;4978853;28;45451;-75
2022/03/29 04:31:08;;;;;;;;;25.25;24.50;;;;;17.04;33.92;100645.41;4980414;28;45213;-74
2022/03/29 04:33:33;;;;;;;;;21.75;20.00;;;;;17.08;33.87;100642.53;4979507;28;45444;-75
2022/03/29 04:35:58;;;;;;;;;25.00;22.25;;;;;17.09;34.07;100637.03;4973792;28;47385;-75
2022/03/29 04:38:25;;;;;;;;;32.00;25.75;;;;;17.06;34.05;100631.84;4979846;28;45358;-75
2022/03/29 04:40:50;;;;;;;;;24.75;22.75;;;;;17.00;33.76;100621.41;4980564;28;45384;-74
2022/03/29 04:43:16;;;;;;;;;27.50;26.75;;;;;17.06;34.10;100629.13;4980411;28;45489;-74
2022/03/29 04:45:41;;;;;;;;;31.25;26.25;;;;;17.03;33.83;100622.09;4980521;28;45365;-74
2022/03/29 04:48:07;;;;;;;;;26.75;24.75;;;;;16.98;33.88;100620.66;4978689;28;45474;-75
2022/03/29 04:50:32;;;;;;;;;30.25;24.75;;;;;17.00;33.89;100624.13;4980506;28;45452;-74
2022/03/29 04:52:58;;;;;;;;;28.75;27.25;;;;;16.92;34.08;100624.56;4983191;28;45959;-75
2022/03/29 04:55:23;;;;;;;;;26.25;23.50;;;;;16.83;34.15;100611.63;4978414;28;47277;-75
2022/03/29 04:57:50;;;;;;;;;31.75;27.75;;;;;16.87;34.07;100618.59;4979226;28;45246;-74
2022/03/29 05:00:20;;;;;;;;;31.00;26.75;;;;;16.80;34.04;100607.28;4980595;28;45333;-74
2022/03/29 05:02:46;;;;;;;;;18.00;16.00;;;;;16.81;34.33;100613.56;4980131;28;45516;-74
2022/03/29 05:05:12;;;;;;;;;29.00;25.75;;;;;16.80;34.30;100620.75;4983792;28;46048;-74
2022/03/29 05:07:38;;;;;;;;;32.00;28.25;;;;;16.68;34.35;100606.19;4980756;28;45206;-75
2022/03/29 05:10:04;;;;;;;;;28.50;25.50;;;;;16.81;34.84;100621.66;4984477;28;45178;-74
2022/03/29 05:12:37;;;;;;;;;24.00;22.75;;;;;16.87;34.53;100632.06;4980822;28;45440;-75
2022/03/29 05:15:03;;;;;;;;;29.25;26.50;;;;;16.84;34.53;100626.84;4985351;28;45458;-74
2022/03/29 05:17:31;;;;;;;;;30.25;24.50;;;;;16.84;34.20;100634.94;4981148;28;45155;-75
2022/03/29 05:19:56;;;;;;;;;33.50;28.50;;;;;16.80;34.33;100620.75;4979843;28;45527;-74
2022/03/29 05:22:21;;;;;;;;;30.00;26.50;;;;;16.74;34.47;100613.06;4979938;28;45566;-74
2022/03/29 05:24:47;;;;;;;;;27.50;23.50;;;;;16.77;34.40;100606.59;4979614;28;45222;-74
2022/03/29 05:27:12;;;;;;;;;33.75;29.00;;;;;16.81;34.55;100608.16;4962976;28;45368;-74
2022/03/29 05:29:38;;;;;;;;;30.25;27.50;;;;;16.77;34.43;100609.28;4979338;28;45419;-74
2022/03/29 05:32:04;;;;;;;;;32.00;26.75;;;;;16.81;34.47;100617.13;4983762;28;45510;-74
2022/03/29 05:34:29;;;;;;;;;17.25;16.75;;;;;16.71;34.63;100613.25;4979366;28;45439;-74
2022/03/29 05:36:54;;;;;;;;;27.25;25.50;;;;;16.70;34.52;100610.63;4979396;28;45249;-74
2022/03/29 05:39:20;;;;;;;;;27.25;25.75;;;;;16.75;34.84;100608.53;4978999;28;45413;-74
2022/03/29 05:41:45;;;;;;;;;29.50;26.00;;;;;16.72;34.59;100608.72;4980628;28;45526;-74
2022/03/29 05:44:10;;;;;;;;;22.75;20.00;;;;;16.67;34.42;100596.41;4983180;28;46054;-74
2022/03/29 05:49:20;;;;;;;;;30.00;25.75;;;;;16.56;34.67;100598.00;4971325;28;45324;-74
2022/03/29 05:51:46;;;;;;;;;29.50;21.00;;;;;16.56;34.83;100606.09;4981763;28;45451;-74
2022/03/29 05:54:11;;;;;;;;;27.00;24.50;;;;;16.57;34.82;100606.00;4982618;28;45415;-74
2022/03/29 05:56:37;;;;;;;;;27.25;23.00;;;;;16.58;35.06;100602.31;4981882;28;45395;-74
2022/03/29 05:59:02;;;;;;;;;28.25;23.25;;;;;16.68;34.98;100608.03;4982927;28;45564;-74
2022/03/29 06:01:27;;;;;;;;;24.75;23.00;;;;;16.66;35.29;100594.66;4989102;28;45492;-75
2022/03/29 06:03:53;;;;;;;;;27.50;25.25;;;;;16.65;35.40;100598.28;4982758;28;45330;-75
2022/03/29 06:06:19;;;;;;;;;27.00;23.50;;;;;16.62;34.99;100603.88;4981460;28;45288;-75
2022/03/29 06:08:44;;;;;;;;;21.75;21.75;;;;;16.64;34.79;100612.75;4971017;28;45334;-74
2022/03/29 06:11:09;;;;;;;;;32.25;25.50;;;;;16.66;34.77;100616.22;4981362;28;45310;-75
2022/03/29 06:13:35;;;;;;;;;30.50;26.50;;;;;16.65;34.84;100624.38;4982156;28;45465;-75
2022/03/29 06:16:02;;;;;;;;;26.00;23.00;;;;;16.59;34.82;100631.00;4980659;28;45382;-76
2022/03/29 06:18:28;;;;;;;;;26.50;22.50;;;;;16.57;34.79;100623.97;4980887;28;45970;-76
2022/03/29 06:20:54;;;;;;;;;25.50;23.50;;;;;16.54;34.78;100626.84;4982430;28;45341;-76
2022/03/29 06:23:19;;;;;;;;;23.25;19.00;;;;;16.57;34.80;100627.56;4982259;28;46031;-72
2022/03/29 06:25:46;;;;;;;;;27.00;25.50;;;;;16.53;35.13;100620.59;4976983;28;46888;-74
2022/03/29 06:28:13;;;;;;;;;24.75;22.75;;;;;16.64;35.01;100636.13;4978962;28;45646;-74
2022/03/29 06:30:39;;;;;;;;;34.50;27.00;;;;;16.53;34.85;100619.72;4979302;28;45210;-75
2022/03/29 06:33:05;;;;;;;;;32.50;26.25;;;;;16.61;34.71;100630.94;4979762;28;45818;-74
2022/03/29 06:35:31;;;;;;;;;26.25;24.25;;;;;16.62;34.76;100641.63;4981404;28;45257;-74
2022/03/29 06:37:58;;;;;;;;;26.00;23.00;;;;;16.52;34.69;100626.06;4977515;28;45230;-74
2022/03/29 06:40:25;;;;;;;;;24.75;22.50;;;;;16.56;34.81;100636.59;4974528;28;45325;-75
2022/03/29 06:42:53;;;;;;;;;27.25;25.00;;;;;16.64;35.10;100633.44;4983845;28;46103;-74
2022/03/29 06:45:19;;;;;;;;;24.00;22.25;;;;;16.66;35.17;100636.91;4973960;28;45745;-74
2022/03/29 06:47:45;;;;;;;;;26.00;21.25;;;;;16.57;34.89;100627.56;4974223;28;45444;-72
2022/03/29 06:50:11;;;;;;;;;30.25;27.25;;;;;16.55;34.99;100626.75;4977942;28;45901;-72
2022/03/29 06:52:40;;;;;;;;;27.00;23.25;;;;;16.58;35.19;100629.25;4972676;28;45257;-72
2022/03/29 06:55:09;;;;;;;;;32.00;27.00;;;;;16.49;35.11;100616.34;4976620;28;45398;-71
2022/03/29 06:57:35;;;;;;;;;24.25;24.25;;;;;16.47;35.17;100615.56;4976169;28;45467;-73
2022/03/29 07:00:01;;;;;;;;;22.75;21.25;;;;;16.43;35.80;100617.56;4986605;28;45507;-72
2022/03/29 07:02:28;;;;;;;;;26.25;25.75;;;;;16.54;35.54;100619.66;4974003;28;45198;-73
2022/03/29 07:04:53;;;;;;;;;33.25;26.25;;;;;16.52;35.22;100613.47;4975410;28;45547;-71
2022/03/29 07:07:18;;;;;;;;;30.50;25.00;;;;;16.37;35.25;100584.72;4978830;28;45456;-71
2022/03/29 07:12:31;;;;;;;;;28.75;25.75;;;;;16.39;35.47;100610.63;4970309;28;45788;-76
2022/03/29 07:14:58;;;;;;;;;27.50;25.00;;;;;16.42;35.50;100614.97;4980644;28;45582;-76
2022/03/29 07:17:23;;;;;;;;;29.25;26.25;;;;;16.46;35.26;100619.22;4973823;28;45327;-78
2022/03/29 07:19:49;;;;;;;;;29.75;24.25;;;;;16.42;35.64;100604.19;4979968;28;46529;-77
2022/03/29 07:22:14;;;;;;;;;27.75;24.00;;;;;16.53;35.57;100609.81;4975510;28;46861;-77
2022/03/29 07:24:40;;;;;;;;;27.75;24.75;;;;;16.47;35.64;100605.66;4974681;28;45388;-76
2022/03/29 07:27:05;;;;;;;;;27.75;24.25;;;;;16.51;35.36;100614.44;4975195;28;45301;-77
2022/03/29 07:29:32;;;;;;;;;32.00;28.00;;;;;16.47;35.57;100610.16;4977451;28;45460;-78
2022/03/29 07:31:57;;;;;;;;;30.25;27.25;;;;;16.45;35.54;100604.88;4980046;28;46308;-78
2022/03/29 07:34:23;;;;;;;;;25.75;22.75;;;;;16.41;35.53;100608.72;4975763;28;45426;-76
2022/03/29 07:36:48;;;;;;;;;27.75;26.25;;;;;16.42;35.69;100607.78;4980250;28;45552;-76
2022/03/29 07:39:14;;;;;;;;;28.00;24.75;;;;;16.43;35.94;100600.53;4975666;28;45356;-76
2022/03/29 07:41:40;;;;;;;;;29.50;25.00;;;;;16.49;35.68;100608.28;4973257;28;47023;-76
2022/03/29 07:44:05;;;;;;;;;29.25;25.50;;;;;16.50;35.67;100601.91;4980650;28;45507;-76
2022/03/29 07:46:31;;;;;;;;;36.25;29.75;;;;;16.47;35.62;100597.59;4980502;28;45478;-75
2022/03/29 07:48:56;;;;;;;;;30.25;24.00;;;;;16.44;35.78;100591.53;4980036;28;45507;-76
2022/03/29 07:51:22;;;;;;;;;38.50;31.75;;;;;16.46;35.93;100593.16;4979892;28;45526;-75
2022/03/29 07:53:48;;;;;;;;;34.75;29.00;;;;;16.48;35.70;100593.91;4978128;28;45439;-76
2022/03/29 07:56:13;;;;;;;;;34.75;28.75;;;;;16.48;35.72;100587.66;4975824;28;45391;-75
2022/03/29 07:58:39;;;;;;;;;35.00;31.75;;;;;16.47;35.73;100585.91;4974961;28;45842;-75
2022/03/29 08:01:04;;;;;;;;;36.00;28.75;;;;;16.44;35.84;100578.91;4979314;28;45463;-75
2022/03/29 08:03:33;;;;;;;;;30.75;23.00;;;;;16.47;35.96;100578.72;4971651;28;45588;-75
2022/03/29 08:06:00;;;;;;;;;26.75;24.75;;;;;16.53;36.07;100582.88;4984787;28;45441;-75
2022/03/29 08:08:26;;;;;;;;;32.25;28.25;;;;;16.56;36.00;100573.75;4972392;28;45674;-75
2022/03/29 08:10:51;;;;;;;;;31.50;29.00;;;;;16.57;35.88;100580.84;4979807;28;45576;-75
2022/03/29 08:13:18;;;;;;;;;27.00;24.75;;;;;16.55;36.11;100567.47;4974419;28;45644;-75
2022/03/29 08:15:47;;;;;;;;;31.50;27.50;;;;;16.61;36.03;100575.19;4967377;28;45344;-75
2022/03/29 08:18:13;;;;;;;;;25.75;22.25;;;;;16.58;35.58;100567.28;4973050;28;45564;-75
2022/03/29 08:20:39;;;;;;;;;33.50;30.50;;;;;16.61;35.61;100574.34;4984770;28;46153;-75
2022/03/29 08:23:06;;;;;;;;;35.75;30.75;;;;;16.56;35.80;100569.22;4979258;28;45372;-75
2022/03/29 08:25:34;;;;;;;;;28.00;24.50;;;;;16.53;35.57;100558.63;4979594;28;45410;-75
2022/03/29 08:28:00;;;;;;;;;39.75;31.00;;;;;16.54;35.63;100559.47;4980249;28;45632;-74
2022/03/29 08:30:27;;;;;;;;;34.50;30.00;;;;;16.58;35.67;100561.91;4975768;28;45988;-75
2022/03/29 08:32:54;;;;;;;;;31.50;29.75;;;;;16.60;35.55;100556.41;4979410;28;45408;-75
2022/03/29 08:35:19;;;;;;;;;36.00;30.00;;;;;16.60;35.62;100553.72;4979816;28;45529;-75
2022/03/29 08:37:46;;;;;;;;;33.75;30.00;;;;;16.60;35.60;100551.03;4977429;28;45422;-75
2022/03/29 08:40:14;;;;;;;;;40.25;33.25;;;;;16.62;35.86;100541.91;4976007;28;46218;-75
2022/03/29 08:42:44;;;;;;;;;38.50;30.50;;;;;16.65;35.90;100538.13;4979822;28;45746;-75
2022/03/29 08:45:12;;;;;;;;;36.50;30.00;;;;;16.63;35.84;100532.00;4986606;28;45414;-75
2022/03/29 08:47:39;;;;;;;;;35.00;30.00;;;;;16.66;35.93;100540.75;4979747;28;45483;-75
2022/03/29 08:50:06;;;;;;;;;39.00;30.00;;;;;16.66;35.72;100534.50;4984946;28;46319;-74
2022/03/29 08:52:32;;;;;;;;;38.50;32.00;;;;;16.67;35.97;100529.03;4978851;28;45394;-75
2022/03/29 08:54:58;;;;;;;;;36.50;32.00;;;;;16.57;36.11;100519.78;4966139;28;45540;-75
2022/03/29 08:57:23;;;;;;;;;40.00;33.25;;;;;16.68;36.23;100527.19;4968410;28;47062;-75
2022/03/29 08:59:49;;;;;;;;;33.25;30.50;;;;;16.74;36.48;100526.81;4981217;28;45411;-75
2022/03/29 09:02:16;;;;;;;;;35.75;31.75;;;;;16.79;36.29;100522.00;4978640;28;45398;-75
2022/03/29 09:04:43;;;;;;;;;33.75;29.50;;;;;16.84;36.54;100517.22;4975709;28;45463;-75
2022/03/29 09:07:08;;;;;;;;;43.25;33.75;;;;;16.83;36.48;100510.06;4971850;28;46562;-75
2022/03/29 09:09:44;;;;;;;;;36.00;32.00;;;;;16.92;36.55;100514.03;4976730;28;47878;-75
2022/03/29 09:12:14;;;;;;;;;32.50;29.75;;;;;16.95;36.51;100508.44;4974792;28;45774;-75
2022/03/29 09:15:00;;;;;;;;;36.75;31.75;;;;;16.96;36.33;100503.94;4978822;28;45621;-74
2022/03/29 09:17:27;;;;;;;;;28.75;28.00;;;;;16.96;36.38;100504.81;4981191;28;45407;-75
2022/03/29 09:19:55;;;;;;;;;35.75;31.50;;;;;16.94;36.55;100501.34;4975912;28;47372;-75
2022/03/29 09:22:42;;;;;;;;;36.25;32.00;;;;;17.03;36.31;100503.44;4975527;28;45646;-75
2022/03/29 09:25:11;;;;;;;;;38.25;32.00;;;;;17.09;36.30;100499.50;4975017;28;45442;-71
2022/03/29 09:27:55;;;;;;;;;38.25;31.50;;;;;17.16;36.41;100494.59;4983418;28;45470;-75
2022/03/29 09:30:23;;;;;;;;;35.00;30.75;;;;;17.22;36.46;100496.88;4977936;28;45439;-74
2022/03/29 09:33:04;;;;;;;;;36.75;32.50;;;;;17.29;36.43;100500.03;4980612;28;45538;-74
2022/03/29 09:35:36;;;;;;;;;39.25;31.50;;;;;17.33;36.73;100502.44;4969548;28;45470;-74
2022/03/29 09:38:20;;;;;;;;;35.00;29.75;;;;;17.35;36.55;100491.56;4973037;28;45539;-74
2022/03/29 09:40:45;;;;;;;;;34.75;30.00;;;;;17.43;36.52;100500.03;4972748;28;46088;-74
2022/03/29 09:43:11;;;;;;;;;35.50;30.00;;;;;17.49;36.36;100496.06;4974628;28;45488;-74
2022/03/29 09:45:42;;;;;;;;;41.25;33.00;;;;;17.49;36.07;100491.56;4976356;28;45463;-74
2022/03/29 09:48:29;;;;;;;;;39.75;31.50;;;;;17.55;36.36;100482.16;4980135;28;46028;-74
2022/03/29 09:50:57;;;;;;;;;43.75;34.50;;;;;17.56;36.34;100479.38;4977552;28;46212;-74
2022/03/29 09:53:43;;;;;;;;;39.50;33.00;;;;;17.56;35.96;100471.28;4978774;28;45408;-74
2022/03/29 09:56:10;;;;;;;;;39.00;32.25;;;;;17.56;36.06;100478.53;4973604;28;45594;-74
2022/03/29 09:58:36;;;;;;;;;41.75;34.50;;;;;17.52;36.09;100469.72;4978180;28;45352;-74
2022/03/29 10:01:04;;;;;;;;;34.25;31.25;;;;;17.59;36.37;100471.09;4979550;28;46268;-74
2022/03/29 10:03:33;;;;;;;;;44.25;34.75;;;;;17.59;36.18;100462.97;4981354;28;45367;-74
2022/03/29 10:06:03;;;;;;;;;39.25;33.50;;;;;17.60;36.48;100462.00;4981540;28;45452;-74
2022/03/29 10:11:18;;;;;;;;;44.25;35.25;;;;;17.71;36.60;100465.84;4974605;28;45391;-74
2022/03/29 10:13:44;;;;;;;;;40.00;35.25;;;;;17.70;36.49;100454.16;4979295;28;45460;-74
2022/03/29 10:16:13;;;;;;;;;43.75;33.50;;;;;17.73;36.87;100447.69;4980762;28;45395;-74
2022/03/29 10:18:41;;;;;;;;;44.00;34.75;;;;;17.81;36.70;100452.56;4980576;28;45921;-74
2022/03/29 10:21:09;;;;;;;;;42.25;35.00;;;;;17.83;36.84;100450.66;4974331;28;45628;-74
2022/03/29 10:23:36;;;;;;;;;42.25;35.00;;;;;17.86;36.84;100445.91;4977511;28;45819;-74
2022/03/29 10:26:03;;;;;;;;;40.25;35.75;;;;;17.93;36.67;100446.38;4977663;28;45434;-74
2022/03/29 10:28:29;;;;;;;;;51.00;37.50;;;;;18.00;36.36;100442.28;4981278;28;45514;-74
2022/03/29 10:30:55;;;;;;;;;43.50;35.75;;;;;18.01;36.20;100435.94;4969266;28;45387;-74
2022/03/29 10:33:25;;;;;;;;;42.25;34.50;;;;;18.04;36.75;100438.44;4972105;28;45649;-74
2022/03/29 10:36:08;;;;;;;;;45.50;35.75;;;;;18.09;36.64;100438.97;4971438;28;45488;-75
2022/03/29 10:38:49;;;;;;;;;46.50;37.25;;;;;18.16;36.24;100434.00;4978861;28;45439;-75
2022/03/29 10:41:27;;;;;;;;;39.50;34.00;;;;;18.23;35.98;100435.31;4981217;28;47561;-75
2022/03/29 10:43:54;;;;;;;;;41.75;35.75;;;;;18.28;35.73;100426.91;4977982;28;45933;-75
2022/03/29 10:46:37;;;;;;;;;45.75;38.75;;;;;18.26;35.55;100415.31;4978809;28;45633;-75
2022/03/29 10:49:23;;;;;;;;;40.25;32.75;;;;;18.35;36.06;100430.03;4981532;28;45772;-74
2022/03/29 10:51:49;;;;;;;;;39.75;35.00;;;;;18.38;35.38;100419.88;4972505;28;47156;-74
2022/03/29 10:54:25;;;;;;;;;37.25;34.00;;;;;18.42;35.75;100413.25;4980496;28;45722;-74
2022/03/29 10:57:02;;;;;;;;;37.75;34.00;;;;;18.44;34.93;100414.03;4969024;28;45487;-74
2022/03/29 10:59:29;;;;;;;;;44.25;37.25;;;;;18.43;35.48;100412.31;4980237;28;45442;-75
2022/03/29 11:02:22;;;;;;;;;36.75;34.50;;;;;18.46;34.96;100417.50;4980947;28;45384;-74
2022/03/29 11:05:00;;;;;;;;;43.00;34.75;;;;;18.49;35.43;100405.59;4960849;28;45397;-74
2022/03/29 11:07:26;;;;;;;;;34.25;31.25;;;;;18.49;35.50;100400.19;4975870;28;45504;-75
2022/03/29 11:10:06;;;;;;;;;41.25;35.25;;;;;18.52;35.03;100400.81;4980621;28;45515;-73
2022/03/29 11:12:57;;;;;;;;;35.75;33.75;;;;;18.59;35.38;100400.41;4979549;28;46185;-72
2022/03/29 11:15:25;;;;;;;;;36.00;32.50;;;;;18.65;34.54;100402.66;4963618;28;45443;-72
2022/03/29 11:17:57;;;;;;;;;41.75;35.00;;;;;18.68;34.29;100399.75;4978088;28;45257;-73
2022/03/29 11:20:34;;;;;;;;;31.50;29.50;;;;;18.66;34.83;100396.28;4967028;28;45333;-73